createdAt,value
2018-11-26T00:00:58.414Z,78.3
2018-11-26T00:01:58.434Z,78.4
2018-11-26T00:02:58.453Z,78.3
2018-11-26T00:03:58.475Z,78.4
2018-11-26T00:04:58.499Z,78.4
2018-11-26T00:05:58.511Z,78.5
2018-11-26T00:06:58.539Z,78.59
2018-11-26T00:07:58.280Z,78.5
2018-11-26T00:08:58.564Z,78.5
2018-11-26T00:09:58.318Z,78.21
2018-11-26T00:10:58.599Z,78.3
2018-11-26T00:11:58.358Z,78.4
2018-11-26T00:12:58.379Z,78.59
2018-11-26T00:13:58.396Z,78.5
2018-11-26T00:14:58.409Z,78.5
2018-11-26T00:15:58.686Z,78.59
2018-11-26T00:16:58.701Z,78.3
2018-11-26T00:17:58.472Z,78.5
2018-11-26T00:18:58.738Z,78.4
2018-11-26T00:19:58.501Z,78.3
2018-11-26T00:20:58.789Z,78.59
2018-11-26T00:21:58.797Z,78.59
2018-11-26T00:22:58.814Z,78.59
2018-11-26T00:23:58.583Z,78.5
2018-11-26T00:24:58.856Z,78.4
2018-11-26T00:25:58.878Z,78.59
2018-11-26T00:26:58.888Z,78.4
2018-11-26T00:27:58.912Z,78.5
2018-11-26T00:28:58.929Z,78.3
2018-11-26T00:29:58.943Z,78.5
2018-11-26T00:30:58.965Z,78.3
2018-11-26T00:31:58.993Z,78.5
2018-11-26T00:32:58.740Z,78.59
2018-11-26T00:33:59.030Z,78.69
2018-11-26T00:34:58.788Z,78.59
2018-11-26T00:35:59.066Z,78.3
2018-11-26T00:36:58.811Z,78.59
2018-11-26T00:37:58.831Z,78.4
2018-11-26T00:38:58.850Z,78.3
2018-11-26T00:39:59.136Z,78.4
2018-11-26T00:40:58.885Z,78.5
2018-11-26T00:41:59.158Z,78.4
2018-11-26T00:42:58.920Z,78.59
2018-11-26T00:43:59.195Z,79.06
2018-11-26T00:44:58.965Z,78.5
2018-11-26T00:45:58.976Z,78.78
2018-11-26T00:46:59.254Z,78.5
2018-11-26T00:47:59.272Z,78.97
2018-11-26T00:48:59.043Z,79.11
2018-11-26T00:49:59.305Z,78.88
2018-11-26T00:50:59.328Z,79.06
2018-11-26T00:51:59.343Z,79.06
2018-11-26T00:52:59.376Z,78.97
2018-11-26T00:53:59.125Z,78.97
2018-11-26T00:54:59.139Z,78.88
2018-11-26T00:55:59.168Z,78.88
2018-11-26T00:56:59.446Z,78.88
2018-11-26T00:57:59.204Z,78.97
2018-11-26T00:58:59.215Z,78.88
2018-11-26T00:59:59.500Z,78.97
2018-11-26T01:00:59.260Z,78.88
2018-11-26T01:01:59.272Z,78.69
2018-11-26T01:02:59.292Z,78.88
2018-11-26T01:03:59.311Z,78.78
2018-11-26T01:04:59.327Z,78.78
2018-11-26T01:05:59.345Z,78.69
2018-11-26T01:06:59.360Z,78.78
2018-11-26T01:07:59.643Z,78.88
2018-11-26T01:08:59.405Z,78.88
2018-11-26T01:09:59.413Z,78.78
2018-11-26T01:10:59.436Z,78.88
2018-11-26T01:11:59.719Z,78.78
2018-11-26T01:12:59.476Z,78.88
2018-11-26T01:13:59.485Z,78.69
2018-11-26T01:14:59.503Z,78.78
2018-11-26T01:15:59.525Z,78.78
2018-11-26T01:16:59.541Z,78.69
2018-11-26T01:17:59.563Z,78.59
2018-11-26T01:18:59.851Z,78.59
2018-11-26T01:19:59.857Z,78.5
2018-11-26T01:20:59.871Z,78.69
2018-11-26T01:21:59.892Z,79.06
2018-11-26T01:22:59.920Z,78.78
2018-11-26T01:23:59.926Z,79.06
2018-11-26T01:24:59.693Z,78.97
2018-11-26T01:25:59.965Z,78.78
2018-11-26T01:26:59.985Z,78.97
2018-11-26T01:27:59.745Z,78.97
2018-11-26T01:28:59.769Z,79.44
2018-11-26T01:29:59.777Z,78.97
2018-11-26T01:31:00.058Z,78.78
2018-11-26T01:32:00.093Z,78.69
2018-11-26T01:32:59.838Z,79.25
2018-11-26T01:34:00.123Z,79.25
2018-11-26T01:35:00.140Z,79.35
2018-11-26T01:36:00.165Z,79.25
2018-11-26T01:36:59.912Z,79.35
2018-11-26T01:38:00.185Z,79.35
2018-11-26T01:39:00.207Z,79.35
2018-11-26T01:40:00.222Z,79.25
2018-11-26T01:40:59.986Z,79.44
2018-11-26T01:41:59.999Z,79.35
2018-11-26T01:43:00.036Z,79.06
2018-11-26T01:44:00.038Z,79.06
2018-11-26T01:45:00.075Z,79.25
2018-11-26T01:46:00.080Z,79.35
2018-11-26T01:47:00.359Z,79.44
2018-11-26T01:48:00.113Z,79.25
2018-11-26T01:49:00.129Z,79.44
2018-11-26T01:50:00.417Z,79.35
2018-11-26T01:51:00.169Z,79.25
2018-11-26T01:52:00.185Z,79.25
2018-11-26T01:53:00.460Z,79.16
2018-11-26T01:54:00.482Z,79.35
2018-11-26T01:55:00.501Z,79.44
2018-11-26T01:56:00.258Z,79.16
2018-11-26T01:57:00.528Z,79.35
2018-11-26T01:58:00.302Z,78.97
2018-11-26T01:59:00.315Z,79.35
2018-11-26T02:00:00.355Z,79.35
2018-11-26T02:01:00.346Z,79.35
2018-11-26T02:02:00.371Z,79.25
2018-11-26T02:03:00.387Z,79.16
2018-11-26T02:04:00.673Z,79.35
2018-11-26T02:05:00.422Z,79.35
2018-11-26T02:06:00.442Z,79.25
2018-11-26T02:07:00.720Z,79.16
2018-11-26T02:08:00.477Z,79.25
2018-11-26T02:09:00.769Z,79.35
2018-11-26T02:10:00.783Z,79.25
2018-11-26T02:11:00.531Z,79.35
2018-11-26T02:12:00.551Z,79.54
2018-11-26T02:13:00.571Z,78.88
2018-11-26T02:14:00.845Z,79.35
2018-11-26T02:15:00.876Z,79.35
2018-11-26T02:16:00.887Z,79.25
2018-11-26T02:17:00.649Z,79.35
2018-11-26T02:18:00.662Z,79.35
2018-11-26T02:19:00.676Z,79.25
2018-11-26T02:20:00.694Z,79.35
2018-11-26T02:21:00.716Z,79.06
2018-11-26T02:22:00.730Z,79.06
2018-11-26T02:23:00.751Z,79.44
2018-11-26T02:24:00.775Z,79.35
2018-11-26T02:25:01.049Z,79.25
2018-11-26T02:26:01.062Z,79.25
2018-11-26T02:27:01.080Z,79.35
2018-11-26T02:28:00.850Z,79.25
2018-11-26T02:29:01.119Z,79.16
2018-11-26T02:30:01.137Z,79.06
2018-11-26T02:31:00.895Z,79.44
2018-11-26T02:32:00.912Z,79.16
2018-11-26T02:33:01.235Z,79.44
2018-11-26T02:34:00.961Z,79.44
2018-11-26T02:35:01.242Z,79.25
2018-11-26T02:36:00.995Z,79.25
2018-11-26T02:37:01.279Z,79.44
2018-11-26T02:38:01.287Z,79.44
2018-11-26T02:39:01.318Z,79.25
2018-11-26T02:40:01.326Z,79.25
2018-11-26T02:41:01.082Z,79.35
2018-11-26T02:42:01.093Z,79.35
2018-11-26T02:43:01.392Z,79.25
2018-11-26T02:44:01.139Z,79.06
2018-11-26T02:45:01.168Z,79.44
2018-11-26T02:46:01.179Z,79.16
2018-11-26T02:47:01.445Z,79.35
2018-11-26T02:48:01.466Z,79.35
2018-11-26T02:49:01.484Z,78.78
2018-11-26T02:50:01.501Z,79.35
2018-11-26T02:51:01.527Z,79.25
2018-11-26T02:52:01.280Z,79.25
2018-11-26T02:53:01.299Z,79.35
2018-11-26T02:54:01.316Z,79.35
2018-11-26T02:55:01.599Z,79.25
2018-11-26T02:56:01.606Z,79.16
2018-11-26T02:57:01.627Z,79.35
2018-11-26T02:58:01.647Z,79.44
2018-11-26T02:59:01.415Z,79.44
2018-11-26T03:00:01.427Z,79.44
2018-11-26T03:01:01.461Z,79.35
2018-11-26T03:02:01.724Z,79.35
2018-11-26T03:03:01.741Z,79.35
2018-11-26T03:04:01.760Z,79.63
2018-11-26T03:05:01.525Z,79.54
2018-11-26T03:06:01.531Z,79.25
2018-11-26T03:07:01.557Z,79.63
2018-11-26T03:08:01.576Z,79.25
2018-11-26T03:09:01.899Z,78.69
2018-11-26T03:10:01.868Z,79.25
2018-11-26T03:11:01.896Z,78.78
2018-11-26T03:12:01.909Z,78.88
2018-11-26T03:13:01.929Z,78.69
2018-11-26T03:14:01.948Z,79.06
2018-11-26T03:15:01.695Z,78.78
2018-11-26T03:16:01.982Z,78.78
2018-11-26T03:17:01.733Z,78.97
2018-11-26T03:18:02.008Z,78.97
2018-11-26T03:19:02.038Z,78.88
2018-11-26T03:20:02.054Z,79.06
2018-11-26T03:21:01.804Z,78.78
2018-11-26T03:22:01.828Z,78.97
2018-11-26T03:23:01.866Z,78.69
2018-11-26T03:24:02.126Z,78.88
2018-11-26T03:25:02.143Z,78.97
2018-11-26T03:26:02.168Z,78.97
2018-11-26T03:27:01.912Z,78.88
2018-11-26T03:28:01.942Z,79.16
2018-11-26T03:29:02.215Z,79.06
2018-11-26T03:30:02.230Z,78.97
2018-11-26T03:31:02.252Z,78.88
2018-11-26T03:32:02.274Z,78.78
2018-11-26T03:33:02.280Z,78.78
2018-11-26T03:34:02.040Z,78.69
2018-11-26T03:35:02.316Z,78.69
2018-11-26T03:36:02.339Z,78.88
2018-11-26T03:37:02.107Z,78.69
2018-11-26T03:38:02.112Z,78.59
2018-11-26T03:39:02.132Z,78.69
2018-11-26T03:40:02.146Z,78.59
2018-11-26T03:41:02.438Z,78.69
2018-11-26T03:42:02.185Z,78.69
2018-11-26T03:43:02.474Z,79.06
2018-11-26T03:44:02.229Z,78.59
2018-11-26T03:45:02.532Z,79.16
2018-11-26T03:46:02.526Z,78.97
2018-11-26T03:47:02.543Z,79.06
2018-11-26T03:48:02.292Z,78.97
2018-11-26T03:49:02.581Z,78.97
2018-11-26T03:50:02.331Z,79.16
2018-11-26T03:51:02.607Z,78.59
2018-11-26T03:52:02.633Z,78.97
2018-11-26T03:53:02.384Z,78.97
2018-11-26T03:54:02.407Z,79.35
2018-11-26T03:55:02.434Z,79.35
2018-11-26T03:56:02.711Z,79.25
2018-11-26T03:57:02.719Z,79.35
2018-11-26T03:58:02.472Z,79.35
2018-11-26T03:59:02.494Z,79.44
2018-11-26T04:00:02.517Z,79.63
2018-11-26T04:01:02.793Z,79.63
2018-11-26T04:02:02.825Z,79.35
2018-11-26T04:03:02.561Z,79.35
2018-11-26T04:04:02.855Z,79.44
2018-11-26T04:05:02.858Z,79.63
2018-11-26T04:06:02.618Z,79.54
2018-11-26T04:07:02.900Z,79.16
2018-11-26T04:08:02.911Z,79.35
2018-11-26T04:09:02.669Z,79.25
2018-11-26T04:10:02.688Z,79.63
2018-11-26T04:11:02.970Z,79.25
2018-11-26T04:12:02.988Z,79.44
2018-11-26T04:13:02.746Z,79.35
2018-11-26T04:14:03.017Z,79.35
2018-11-26T04:15:02.785Z,79.16
2018-11-26T04:16:03.051Z,79.16
2018-11-26T04:17:03.089Z,79.44
2018-11-26T04:18:02.835Z,78.88
2018-11-26T04:19:02.860Z,79.25
2018-11-26T04:20:02.870Z,78.97
2018-11-26T04:21:02.899Z,79.25
2018-11-26T04:22:03.171Z,79.16
2018-11-26T04:23:03.183Z,79.16
2018-11-26T04:24:03.207Z,79.25
2018-11-26T04:25:02.971Z,79.06
2018-11-26T04:26:02.977Z,79.35
2018-11-26T04:27:02.995Z,78.97
2018-11-26T04:28:03.277Z,79.25
2018-11-26T04:29:03.034Z,78.97
2018-11-26T04:30:03.306Z,79.44
2018-11-26T04:31:03.333Z,79.25
2018-11-26T04:32:03.092Z,79.35
2018-11-26T04:33:03.376Z,79.16
2018-11-26T04:34:03.376Z,79.16
2018-11-26T04:35:03.134Z,79.35
2018-11-26T04:36:03.437Z,79.35
2018-11-26T04:37:03.454Z,79.16
2018-11-26T04:38:03.463Z,79.16
2018-11-26T04:39:03.474Z,79.25
2018-11-26T04:40:03.487Z,79.06
2018-11-26T04:41:03.252Z,79.35
2018-11-26T04:42:03.524Z,79.54
2018-11-26T04:43:03.548Z,79.35
2018-11-26T04:44:03.298Z,79.25
2018-11-26T04:45:03.333Z,79.35
2018-11-26T04:46:03.608Z,79.44
2018-11-26T04:47:03.360Z,79.35
2018-11-26T04:48:03.388Z,79.35
2018-11-26T04:49:03.648Z,79.44
2018-11-26T04:50:03.410Z,79.35
2018-11-26T04:51:03.426Z,79.35
2018-11-26T04:52:03.701Z,79.35
2018-11-26T04:53:03.723Z,79.44
2018-11-26T04:54:03.490Z,79.44
2018-11-26T04:55:03.756Z,79.44
2018-11-26T04:56:03.518Z,79.44
2018-11-26T04:57:03.533Z,79.35
2018-11-26T04:58:03.827Z,79.35
2018-11-26T04:59:03.826Z,79.35
2018-11-26T05:00:03.585Z,79.16
2018-11-26T05:01:03.884Z,79.35
2018-11-26T05:02:03.621Z,79.25
2018-11-26T05:03:03.909Z,79.44
2018-11-26T05:04:03.914Z,79.25
2018-11-26T05:05:03.940Z,79.35
2018-11-26T05:06:03.953Z,79.25
2018-11-26T05:07:03.980Z,79.35
2018-11-26T05:08:03.743Z,79.35
2018-11-26T05:09:04.011Z,79.44
2018-11-26T05:10:03.770Z,79.35
2018-11-26T05:11:04.047Z,79.44
2018-11-26T05:12:04.059Z,79.35
2018-11-26T05:13:04.079Z,79.35
2018-11-26T05:14:04.101Z,79.35
2018-11-26T05:15:04.184Z,78.97
2018-11-26T05:16:03.875Z,79.16
2018-11-26T05:17:03.896Z,79.63
2018-11-26T05:18:03.911Z,79.54
2018-11-26T05:19:04.181Z,79.35
2018-11-26T05:20:03.945Z,79.63
2018-11-26T05:21:03.981Z,79.35
2018-11-26T05:22:03.980Z,79.35
2018-11-26T05:23:03.995Z,79.35
2018-11-26T05:24:04.022Z,79.16
2018-11-26T05:25:04.296Z,79.25
2018-11-26T05:26:04.325Z,79.35
2018-11-26T05:27:04.325Z,79.25
2018-11-26T05:28:04.089Z,79.06
2018-11-26T05:29:04.103Z,78.88
2018-11-26T05:30:04.136Z,78.78
2018-11-26T05:31:04.411Z,78.97
2018-11-26T05:32:04.427Z,78.78
2018-11-26T05:33:04.449Z,79.06
2018-11-26T05:34:04.454Z,78.78
2018-11-26T05:35:04.478Z,79.06
2018-11-26T05:36:04.240Z,78.97
2018-11-26T05:37:04.523Z,78.97
2018-11-26T05:38:04.264Z,79.06
2018-11-26T05:39:04.543Z,78.97
2018-11-26T05:40:04.298Z,78.97
2018-11-26T05:41:04.336Z,78.97
2018-11-26T05:42:04.333Z,78.88
2018-11-26T05:43:04.353Z,78.69
2018-11-26T05:44:04.633Z,78.69
2018-11-26T05:45:04.393Z,78.5
2018-11-26T05:46:04.674Z,78.69
2018-11-26T05:47:04.693Z,78.59
2018-11-26T05:48:04.446Z,78.97
2018-11-26T05:49:04.717Z,78.69
2018-11-26T05:50:04.484Z,78.97
2018-11-26T05:51:04.505Z,78.78
2018-11-26T05:52:04.517Z,78.78
2018-11-26T05:53:04.545Z,78.78
2018-11-26T05:54:04.810Z,78.97
2018-11-26T05:55:04.844Z,78.97
2018-11-26T05:56:04.587Z,78.97
2018-11-26T05:57:04.868Z,78.78
2018-11-26T05:58:04.890Z,78.78
2018-11-26T05:59:04.641Z,78.78
2018-11-26T06:00:04.672Z,78.78
2018-11-26T06:01:04.937Z,78.97
2018-11-26T06:02:04.953Z,78.78
2018-11-26T06:03:04.719Z,78.78
2018-11-26T06:04:04.997Z,78.69
2018-11-26T06:05:04.747Z,78.78
2018-11-26T06:06:04.769Z,78.78
2018-11-26T06:07:05.056Z,78.88
2018-11-26T06:08:04.801Z,78.97
2018-11-26T06:09:05.078Z,78.78
2018-11-26T06:10:05.110Z,78.69
2018-11-26T06:11:04.861Z,78.69
2018-11-26T06:12:04.882Z,78.78
2018-11-26T06:13:05.567Z,78.78
2018-11-26T06:14:05.166Z,78.69
2018-11-26T06:15:04.934Z,78.88
2018-11-26T06:16:05.202Z,78.78
2018-11-26T06:17:05.232Z,78.78
2018-11-26T06:18:04.983Z,78.69
2018-11-26T06:19:04.999Z,78.97
2018-11-26T06:20:05.295Z,78.78
2018-11-26T06:21:05.043Z,78.78
2018-11-26T06:22:05.311Z,78.78
2018-11-26T06:23:05.073Z,78.78
2018-11-26T06:24:05.345Z,78.97
2018-11-26T06:25:05.111Z,78.97
2018-11-26T06:26:05.135Z,78.88
2018-11-26T06:27:05.141Z,78.78
2018-11-26T06:28:05.422Z,78.78
2018-11-26T06:29:05.176Z,78.78
2018-11-26T06:30:05.195Z,78.78
2018-11-26T06:31:05.212Z,78.97
2018-11-26T06:32:05.241Z,78.97
2018-11-26T06:33:05.526Z,78.78
2018-11-26T06:34:05.272Z,78.59
2018-11-26T06:35:05.544Z,78.5
2018-11-26T06:36:05.300Z,78.97
2018-11-26T06:37:05.328Z,78.97
2018-11-26T06:38:05.340Z,78.97
2018-11-26T06:39:05.613Z,78.5
2018-11-26T06:40:05.633Z,78.97
2018-11-26T06:41:05.392Z,78.78
2018-11-26T06:42:05.418Z,78.69
2018-11-26T06:43:05.699Z,78.5
2018-11-26T06:44:05.705Z,78.97
2018-11-26T06:45:05.724Z,78.59
2018-11-26T06:46:05.489Z,78.69
2018-11-26T06:47:05.759Z,78.59
2018-11-26T06:48:05.774Z,78.69
2018-11-26T06:49:05.790Z,78.59
2018-11-26T06:50:05.810Z,78.69
2018-11-26T06:51:05.582Z,78.78
2018-11-26T06:52:05.599Z,78.97
2018-11-26T06:53:05.862Z,78.88
2018-11-26T06:54:05.883Z,78.69
2018-11-26T06:55:05.900Z,79.16
2018-11-26T06:56:05.919Z,78.97
2018-11-26T06:57:05.948Z,78.69
2018-11-26T06:58:05.701Z,79.06
2018-11-26T06:59:05.976Z,79.06
2018-11-26T07:00:06.003Z,78.97
2018-11-26T07:01:05.762Z,79.06
2018-11-26T07:02:06.037Z,79.06
2018-11-26T07:03:05.788Z,79.06
2018-11-26T07:04:05.803Z,79.06
2018-11-26T07:05:06.090Z,78.97
2018-11-26T07:06:05.841Z,79.06
2018-11-26T07:07:05.861Z,79.06
2018-11-26T07:08:05.880Z,79.16
2018-11-26T07:09:05.901Z,78.78
2018-11-26T07:10:05.909Z,78.97
2018-11-26T07:11:05.929Z,78.78
2018-11-26T07:12:05.950Z,79.16
2018-11-26T07:13:06.225Z,78.78
2018-11-26T07:14:06.245Z,78.97
2018-11-26T07:15:06.270Z,78.97
2018-11-26T07:16:06.021Z,78.97
2018-11-26T07:17:06.311Z,78.97
2018-11-26T07:18:06.336Z,78.88
2018-11-26T07:19:06.077Z,79.06
2018-11-26T07:20:06.359Z,79.06
2018-11-26T07:21:06.157Z,79.06
2018-11-26T07:22:06.128Z,78.88
2018-11-26T07:23:06.402Z,78.69
2018-11-26T07:24:06.435Z,78.78
2018-11-26T07:25:06.182Z,78.59
2018-11-26T07:26:06.461Z,78.69
2018-11-26T07:27:06.218Z,78.88
2018-11-26T07:28:06.234Z,78.69
2018-11-26T07:29:06.510Z,78.88
2018-11-26T07:30:06.273Z,78.69
2018-11-26T07:31:06.596Z,78.59
2018-11-26T07:32:06.305Z,78.69
2018-11-26T07:33:06.589Z,78.97
2018-11-26T07:34:06.598Z,78.97
2018-11-26T07:35:06.633Z,78.78
2018-11-26T07:36:13.265Z,78.78
2018-11-26T07:37:06.419Z,78.88
2018-11-26T07:38:06.715Z,78.69
2018-11-26T07:39:06.941Z,78.69
2018-11-26T07:40:06.463Z,78.78
2018-11-26T07:41:06.733Z,78.69
2018-11-26T07:42:06.761Z,78.69
2018-11-26T07:43:06.512Z,78.78
2018-11-26T07:44:06.790Z,78.78
2018-11-26T07:45:06.544Z,78.88
2018-11-26T07:46:06.556Z,78.78
2018-11-26T07:47:06.584Z,78.78
2018-11-26T07:48:06.861Z,78.88
2018-11-26T07:49:06.610Z,78.88
2018-11-26T07:50:06.641Z,78.88
2018-11-26T07:51:06.654Z,78.97
2018-11-26T07:52:06.673Z,78.59
2018-11-26T07:53:06.941Z,79.06
2018-11-26T07:54:06.962Z,78.97
2018-11-26T07:55:06.718Z,78.97
2018-11-26T07:56:06.993Z,79.06
2018-11-26T07:57:07.019Z,78.5
2018-11-26T07:58:06.772Z,79.25
2018-11-26T07:59:06.793Z,78.5
2018-11-26T08:00:07.073Z,79.16
2018-11-26T08:01:07.091Z,78.5
2018-11-26T08:02:06.846Z,78.3
2018-11-26T08:03:07.122Z,79.16
2018-11-26T08:04:07.145Z,78.4
2018-11-26T08:05:06.898Z,78.4
2018-11-26T08:06:11.172Z,78.5
2018-11-26T08:07:07.210Z,78.21
2018-11-26T08:08:06.953Z,78.59
2018-11-26T08:09:07.228Z,78.59
2018-11-26T08:10:07.249Z,78.44
2018-11-26T08:11:07.268Z,78.3
2018-11-26T08:12:07.023Z,78.44
2018-11-26T08:13:07.303Z,78.21
2018-11-26T08:14:07.333Z,78.5
2018-11-26T08:15:07.339Z,78.44
2018-11-26T08:16:07.356Z,78.44
2018-11-26T08:17:07.374Z,78.53
2018-11-26T08:18:07.134Z,78.44
2018-11-26T08:19:07.153Z,78.53
2018-11-26T08:20:07.479Z,78.02
2018-11-26T08:21:07.457Z,78.63
2018-11-26T08:22:07.212Z,78.53
2018-11-26T08:23:07.225Z,78.44
2018-11-26T08:24:07.500Z,78.44
2018-11-26T08:25:07.296Z,78.25
2018-11-26T08:26:07.278Z,78.53
2018-11-26T08:27:07.552Z,78.44
2018-11-26T08:28:07.590Z,78.63
2018-11-26T08:29:07.331Z,78.06
2018-11-26T08:30:07.362Z,78.44
2018-11-26T08:31:07.638Z,77.87
2018-11-26T08:32:07.387Z,77.87
2018-11-26T08:33:07.403Z,78.06
2018-11-26T08:34:07.677Z,77.87
2018-11-26T08:35:07.712Z,77.77
2018-11-26T08:36:07.730Z,77.87
2018-11-26T08:37:07.733Z,77.97
2018-11-26T08:38:07.752Z,77.97
2018-11-26T08:39:07.769Z,77.87
2018-11-26T08:40:07.540Z,77.87
2018-11-26T08:41:07.556Z,77.97
2018-11-26T08:42:07.577Z,77.87
2018-11-26T08:43:07.851Z,77.97
2018-11-26T08:44:12.128Z,77.97
2018-11-26T08:45:07.624Z,78.16
2018-11-26T08:46:07.900Z,78.16
2018-11-26T08:47:07.670Z,78.16
2018-11-26T08:48:07.672Z,78.16
2018-11-26T08:49:07.690Z,78.16
2018-11-26T08:50:07.716Z,78.06
2018-11-26T08:51:07.989Z,77.97
2018-11-26T08:52:07.743Z,77.97
2018-11-26T08:53:08.032Z,78.25
2018-11-26T08:54:07.781Z,77.77
2018-11-26T08:55:08.058Z,78.06
2018-11-26T08:56:08.090Z,77.97
2018-11-26T08:57:08.110Z,77.97
2018-11-26T08:58:07.858Z,77.49
2018-11-26T08:59:08.142Z,78.06
2018-11-26T09:00:07.901Z,78.06
2018-11-26T09:01:07.907Z,77.77
2018-11-26T09:02:08.186Z,77.77
2018-11-26T09:03:08.227Z,77.87
2018-11-26T09:04:07.973Z,78.16
2018-11-26T09:05:08.253Z,78.16
2018-11-26T09:06:08.332Z,77.49
2018-11-26T09:07:08.013Z,78.16
2018-11-26T09:08:08.039Z,77.77
2018-11-26T09:09:08.310Z,77.49
2018-11-26T09:10:08.331Z,77.58
2018-11-26T09:11:08.090Z,77.77
2018-11-26T09:12:08.114Z,77.49
2018-11-26T09:13:08.382Z,77.68
2018-11-26T09:14:08.402Z,77.87
2018-11-26T09:15:08.420Z,77.77
2018-11-26T09:16:08.438Z,77.68
2018-11-26T09:17:08.211Z,77.49
2018-11-26T09:18:08.221Z,77.49
2018-11-26T09:19:08.242Z,77.39
2018-11-26T09:20:08.514Z,77.49
2018-11-26T09:21:08.532Z,77.39
2018-11-26T09:22:08.287Z,77.2
2018-11-26T09:23:08.307Z,77.3
2018-11-26T09:24:08.323Z,77.39
2018-11-26T09:25:08.603Z,77.3
2018-11-26T09:26:08.630Z,77.3
2018-11-26T09:27:12.436Z,77.49
2018-11-26T09:28:08.663Z,77.11
2018-11-26T09:29:08.680Z,76.82
2018-11-26T09:30:08.709Z,76.92
2018-11-26T09:31:08.453Z,76.92
2018-11-26T09:32:08.735Z,76.82
2018-11-26T09:33:08.745Z,77.01
2018-11-26T09:34:08.511Z,77.01
2018-11-26T09:35:09.270Z,76.92
2018-11-26T09:36:08.799Z,77.3
2018-11-26T09:37:08.831Z,77.2
2018-11-26T09:38:08.856Z,76.73
2018-11-26T09:39:08.599Z,76.92
2018-11-26T09:40:08.613Z,77.05
2018-11-26T09:41:08.638Z,76.73
2018-11-26T09:42:08.648Z,76.73
2018-11-26T09:43:08.703Z,76.76
2018-11-26T09:44:08.943Z,76.86
2018-11-26T09:45:08.714Z,76.73
2018-11-26T09:46:09.042Z,76.73
2018-11-26T09:47:09.017Z,76.67
2018-11-26T09:48:09.022Z,76.57
2018-11-26T09:49:09.043Z,76.39
2018-11-26T09:50:09.067Z,76.1
2018-11-26T09:51:16.412Z,76.76
2018-11-26T09:52:09.093Z,76.29
2018-11-26T09:53:08.857Z,76.39
2018-11-26T09:54:08.874Z,76.57
2018-11-26T09:55:09.156Z,76.57
2018-11-26T09:56:09.174Z,76.39
2018-11-26T09:57:08.929Z,76.57
2018-11-26T09:58:09.203Z,76.54
2018-11-26T09:59:09.236Z,76.48
2018-11-26T10:00:09.241Z,76.2
2018-11-26T10:01:09.256Z,76.39
2018-11-26T10:02:10.072Z,76.2
2018-11-26T10:03:09.295Z,76.1
2018-11-26T10:04:09.323Z,76.48
2018-11-26T10:05:09.329Z,75.91
2018-11-26T10:06:09.344Z,76.2
2018-11-26T10:07:09.378Z,76.2
2018-11-26T10:08:09.136Z,76.01
2018-11-26T10:09:09.407Z,75.72
2018-11-26T10:10:09.426Z,75.81
2018-11-26T10:11:09.444Z,75.91
2018-11-26T10:12:09.454Z,75.81
2018-11-26T10:13:09.487Z,75.81
2018-11-26T10:14:09.509Z,76.01
2018-11-26T10:15:09.512Z,76.01
2018-11-26T10:16:09.527Z,76.01
2018-11-26T10:17:09.551Z,76.01
2018-11-26T10:18:09.306Z,75.91
2018-11-26T10:19:09.587Z,76.1
2018-11-26T10:20:09.617Z,75.34
2018-11-26T10:21:09.623Z,76.01
2018-11-26T10:22:09.637Z,76.01
2018-11-26T10:23:09.677Z,75.34
2018-11-26T10:24:09.673Z,75.43
2018-11-26T10:25:10.006Z,75.43
2018-11-26T10:26:09.717Z,75.72
2018-11-26T10:27:09.728Z,75.43
2018-11-26T10:28:09.749Z,75.43
2018-11-26T10:29:09.766Z,75.72
2018-11-26T10:30:09.533Z,75.62
2018-11-26T10:31:09.800Z,75.72
2018-11-26T10:32:09.564Z,75.62
2018-11-26T10:33:17.092Z,75.62
2018-11-26T10:34:09.860Z,75.62
2018-11-26T10:35:09.633Z,75.53
2018-11-26T10:36:09.636Z,75.53
2018-11-26T10:37:09.920Z,75.53
2018-11-26T10:38:09.932Z,75.72
2018-11-26T10:39:09.968Z,75.62
2018-11-26T10:40:09.710Z,75.62
2018-11-26T10:41:09.733Z,75.62
2018-11-26T10:42:09.750Z,75.72
2018-11-26T10:43:13.842Z,75.62
2018-11-26T10:44:10.060Z,75.72
2018-11-26T10:45:10.061Z,75.72
2018-11-26T10:46:10.077Z,75.15
2018-11-26T10:47:09.846Z,75.24
2018-11-26T10:48:09.857Z,75.43
2018-11-26T10:49:09.876Z,75.34
2018-11-26T10:50:09.898Z,75.05
2018-11-26T10:51:10.185Z,75.15
2018-11-26T10:52:09.932Z,75.53
2018-11-26T10:53:10.579Z,75.34
2018-11-26T10:54:09.974Z,75.15
2018-11-26T10:55:09.994Z,75.43
2018-11-26T10:56:10.015Z,75.34
2018-11-26T10:57:10.025Z,75.15
2018-11-26T10:58:10.095Z,75.24
2018-11-26T10:59:10.071Z,75.24
2018-11-26T11:00:10.083Z,75.24
2018-11-26T11:01:10.365Z,75.34
2018-11-26T11:02:10.386Z,75.43
2018-11-26T11:03:10.147Z,75.43
2018-11-26T11:04:10.163Z,75.62
2018-11-26T11:05:10.171Z,75.24
2018-11-26T11:06:10.200Z,75.34
2018-11-26T11:07:10.209Z,75.34
2018-11-26T11:08:10.482Z,75.53
2018-11-26T11:09:10.240Z,75.24
2018-11-26T11:10:10.523Z,75.53
2018-11-26T11:11:10.537Z,75.43
2018-11-26T11:12:10.298Z,75.34
2018-11-26T11:13:10.313Z,75.53
2018-11-26T11:14:10.596Z,75.34
2018-11-26T11:15:10.366Z,75.34
2018-11-26T11:16:10.375Z,75.43
2018-11-26T11:17:10.393Z,75.53
2018-11-26T11:18:10.423Z,75.53
2018-11-26T11:19:10.429Z,75.53
2018-11-26T11:20:10.447Z,75.53
2018-11-26T11:21:10.480Z,75.43
2018-11-26T11:22:10.751Z,75.43
2018-11-26T11:23:10.503Z,75.72
2018-11-26T11:24:10.532Z,75.62
2018-11-26T11:25:10.547Z,75.34
2018-11-26T11:26:10.818Z,75.34
2018-11-26T11:27:10.832Z,75.62
2018-11-26T11:28:10.598Z,75.72
2018-11-26T11:29:10.617Z,74.96
2018-11-26T11:30:10.674Z,75.62
2018-11-26T11:31:10.646Z,74.96
2018-11-26T11:32:10.671Z,74.96
2018-11-26T11:34:10.703Z,75.43
2018-11-26T11:35:10.723Z,74.77
2018-11-26T11:36:10.737Z,74.96
2018-11-26T11:37:10.757Z,75.53
2018-11-26T11:38:10.785Z,75.72
2018-11-26T11:39:10.804Z,74.96
2018-11-26T11:40:10.819Z,75.53
2018-11-26T11:41:11.105Z,75.53
2018-11-26T11:42:10.852Z,75.34
2018-11-26T11:43:11.133Z,75.72
2018-11-26T11:44:10.894Z,75.43
2018-11-26T11:45:10.903Z,75.34
2018-11-26T11:46:10.922Z,75.34
2018-11-26T11:47:10.945Z,75.53
2018-11-26T11:48:10.962Z,75.62
2018-11-26T11:49:10.981Z,75.34
2018-11-26T11:50:10.996Z,75.05
2018-11-26T11:51:11.012Z,75.62
2018-11-26T11:52:11.044Z,74.87
2018-11-26T11:53:11.054Z,75.72
2018-11-26T11:54:11.077Z,75.72
2018-11-26T11:55:11.098Z,75.53
2018-11-26T11:56:11.362Z,75.53
2018-11-26T11:57:11.135Z,75.43
2018-11-26T11:58:11.144Z,75.62
2018-11-26T11:59:11.164Z,75.62
2018-11-26T12:00:11.450Z,75.53
2018-11-26T12:01:12.967Z,75.72
2018-11-26T12:02:14.034Z,75.72
2018-11-26T12:03:11.235Z,75.72
2018-11-26T12:04:11.514Z,75.62
2018-11-26T12:05:11.539Z,75.72
2018-11-26T12:06:11.395Z,75.43
2018-11-26T12:07:11.320Z,75.62
2018-11-26T12:08:11.333Z,75.62
2018-11-26T12:09:11.347Z,75.43
2018-11-26T12:10:11.625Z,75.62
2018-11-26T12:11:11.640Z,75.53
2018-11-26T12:12:11.404Z,75.53
2018-11-26T12:13:11.434Z,75.62
2018-11-26T12:14:11.698Z,75.34
2018-11-26T12:15:11.464Z,75.43
2018-11-26T12:16:11.477Z,75.34
2018-11-26T12:17:11.503Z,75.62
2018-11-26T12:18:11.517Z,75.53
2018-11-26T12:19:11.800Z,75.91
2018-11-26T12:20:11.556Z,75.91
2018-11-26T12:21:11.833Z,76.01
2018-11-26T12:22:11.585Z,76.01
2018-11-26T12:23:11.868Z,75.91
2018-11-26T12:24:11.885Z,75.91
2018-11-26T12:25:11.653Z,75.81
2018-11-26T12:26:11.666Z,76.01
2018-11-26T12:27:11.679Z,76.01
2018-11-26T12:28:11.959Z,76.2
2018-11-26T12:29:11.978Z,76.1
2018-11-26T12:30:11.740Z,76.01
2018-11-26T12:31:11.964Z,75.43
2018-11-26T12:32:12.031Z,75.43
2018-11-26T12:33:12.054Z,75.53
2018-11-26T12:34:12.069Z,75.53
2018-11-26T12:35:11.828Z,75.62
2018-11-26T12:36:11.847Z,75.62
2018-11-26T12:37:11.874Z,75.53
2018-11-26T12:38:12.141Z,75.43
2018-11-26T12:39:11.941Z,75.43
2018-11-26T12:40:11.922Z,75.43
2018-11-26T12:41:12.194Z,75.43
2018-11-26T12:42:12.216Z,75.43
2018-11-26T12:43:11.976Z,75.43
2018-11-26T12:44:11.998Z,75.43
2018-11-26T12:45:12.269Z,75.43
2018-11-26T12:46:12.036Z,75.34
2018-11-26T12:47:12.055Z,75.62
2018-11-26T12:48:12.075Z,75.43
2018-11-26T12:49:12.095Z,75.91
2018-11-26T12:50:12.372Z,75.53
2018-11-26T12:51:12.126Z,75.62
2018-11-26T12:52:12.143Z,75.62
2018-11-26T12:53:12.422Z,75.62
2018-11-26T12:54:12.180Z,75.62
2018-11-26T12:55:12.200Z,75.15
2018-11-26T12:56:12.221Z,75.43